Time;durP1;ratioP1;P1;durP2;ratioP2;P2;SDS_P1;SDS_P2;PMS_P1;PMS_P2;Temp;Humidity;BMP_temperature;BMP_pressure;BME280_temperature;BME280_humidity;BME280_pressure;Samples;Min_cycle;Max_cycle;Signal;HPM_P1;HPM_P2
2021/12/19 00:04:55;;;;;;;27.10;6.30;;;;;;;;;;5031237;28;20084;-79
2021/12/19 00:09:19;;;;;;;28.15;5.75;;;;;;;;;;5032743;28;19952;-77
2021/12/19 00:11:45;;;;;;;24.15;5.07;;;;;;;;;;5035391;28;20045;-78
2021/12/19 00:14:11;;;;;;;24.20;4.40;;;;;;;;;;5018713;28;20098;-77
2021/12/19 00:16:37;;;;;;;23.20;5.03;;;;;;;;;;5035299;28;20053;-77
2021/12/19 00:19:03;;;;;;;30.15;5.30;;;;;;;;;;5030585;28;20082;-78
2021/12/19 00:21:30;;;;;;;33.17;6.13;;;;;;;;;;5035163;28;20018;-77
2021/12/19 00:23:57;;;;;;;28.38;5.50;;;;;;;;;;5036796;28;20021;-79
2021/12/19 00:26:23;;;;;;;29.65;6.40;;;;;;;;;;5036189;28;20073;-78
2021/12/19 00:28:50;;;;;;;27.30;6.00;;;;;;;;;;5019896;28;20034;-79
2021/12/19 00:31:16;;;;;;;25.02;5.70;;;;;;;;;;5036469;28;20026;-78
2021/12/19 00:33:43;;;;;;;29.52;6.32;;;;;;;;;;5019530;28;20085;-78
2021/12/19 00:36:09;;;;;;;32.95;6.63;;;;;;;;;;5036380;28;20033;-79
2021/12/19 00:38:36;;;;;;;32.72;5.57;;;;;;;;;;5036501;28;20030;-77
2021/12/19 00:41:02;;;;;;;27.77;5.47;;;;;;;;;;5036788;28;20014;-78
2021/12/19 00:43:36;;;;;;;36.60;7.00;;;;;;;;;;5019592;28;20021;-78
2021/12/19 00:46:07;;;;;;;32.40;7.10;;;;;;;;;;5036637;28;20006;-78
2021/12/19 00:48:38;;;;;;;34.28;7.38;;;;;;;;;;5036576;28;20021;-77
2021/12/19 00:51:05;;;;;;;35.55;7.95;;;;;;;;;;5036612;28;20026;-78
2021/12/19 00:53:31;;;;;;;40.22;7.30;;;;;;;;;;5036218;28;20033;-79
2021/12/19 00:55:57;;;;;;;43.40;8.50;;;;;;;;;;5019406;28;20041;-79
2021/12/19 00:58:23;;;;;;;33.45;7.28;;;;;;;;;;5028439;28;20198;-78
2021/12/19 01:00:49;;;;;;;31.80;7.60;;;;;;;;;;5015995;28;20081;-78
2021/12/19 01:03:15;;;;;;;38.17;7.80;;;;;;;;;;5014506;28;20065;-77
2021/12/19 01:05:42;;;;;;;32.90;8.15;;;;;;;;;;5011630;28;20402;-79
2021/12/19 01:08:08;;;;;;;33.58;6.90;;;;;;;;;;5022788;28;20022;-78
2021/12/19 01:10:34;;;;;;;44.60;9.10;;;;;;;;;;5026291;28;20030;-79
2021/12/19 01:13:02;;;;;;;48.65;8.23;;;;;;;;;;5026931;28;20030;-79
2021/12/19 01:15:28;;;;;;;35.15;7.68;;;;;;;;;;5023612;28;20518;-78
2021/12/19 01:17:54;;;;;;;40.30;8.55;;;;;;;;;;5024727;28;20033;-79
2021/12/19 01:20:22;;;;;;;39.17;9.02;;;;;;;;;;5034216;28;20021;-77
2021/12/19 01:22:48;;;;;;;31.05;7.70;;;;;;;;;;5019389;28;20581;-79
2021/12/19 01:25:14;;;;;;;46.25;9.02;;;;;;;;;;5026253;28;20422;-80
2021/12/19 01:27:40;;;;;;;40.25;7.93;;;;;;;;;;5009447;28;20032;-80
2021/12/19 01:30:07;;;;;;;48.70;8.27;;;;;;;;;;5007849;28;20061;-80
2021/12/19 01:32:33;;;;;;;36.63;8.25;;;;;;;;;;5028019;28;20112;-78
2021/12/19 01:34:59;;;;;;;40.17;8.23;;;;;;;;;;5037052;28;20022;-79
2021/12/19 01:37:25;;;;;;;42.30;7.90;;;;;;;;;;5036780;28;20010;-79
2021/12/19 01:39:51;;;;;;;40.38;8.35;;;;;;;;;;5026344;28;20101;-78
2021/12/19 01:42:19;;;;;;;37.50;9.30;;;;;;;;;;5006168;28;20029;-78
2021/12/19 01:44:46;;;;;;;36.08;8.02;;;;;;;;;;5023390;28;20028;-79
2021/12/19 01:47:13;;;;;;;43.03;8.70;;;;;;;;;;5020489;28;20096;-78
2021/12/19 01:49:39;;;;;;;40.22;8.07;;;;;;;;;;5019615;28;20026;-79
2021/12/19 01:52:05;;;;;;;39.50;7.07;;;;;;;;;;5018689;28;20033;-77
2021/12/19 01:54:31;;;;;;;36.45;6.88;;;;;;;;;;5002196;28;20056;-79
2021/12/19 01:56:57;;;;;;;39.03;7.93;;;;;;;;;;5019617;28;20029;-78
2021/12/19 01:59:23;;;;;;;39.97;8.98;;;;;;;;;;5019483;28;20018;-78
2021/12/19 02:01:51;;;;;;;36.60;7.43;;;;;;;;;;5017324;28;20049;-78
2021/12/19 02:04:17;;;;;;;42.90;8.43;;;;;;;;;;5018978;28;20032;-78
2021/12/19 02:06:43;;;;;;;40.08;7.30;;;;;;;;;;5001806;28;20052;-79
2021/12/19 02:09:10;;;;;;;37.47;8.55;;;;;;;;;;5021316;28;20030;-78
2021/12/19 02:11:37;;;;;;;39.78;8.15;;;;;;;;;;5017235;28;20395;-78
2021/12/19 02:14:04;;;;;;;39.13;9.18;;;;;;;;;;4999401;28;20018;-78
2021/12/19 02:16:30;;;;;;;38.63;8.32;;;;;;;;;;5017861;28;20030;-78
2021/12/19 02:18:57;;;;;;;32.75;7.43;;;;;;;;;;5025675;28;20395;-79
2021/12/19 02:21:23;;;;;;;45.15;8.00;;;;;;;;;;5029890;28;20029;-80
2021/12/19 02:23:49;;;;;;;36.03;8.45;;;;;;;;;;5031230;28;20033;-79
2021/12/19 02:26:15;;;;;;;38.70;8.57;;;;;;;;;;5029487;28;20030;-80
2021/12/19 02:28:42;;;;;;;38.00;7.22;;;;;;;;;;5026050;28;20376;-80
2021/12/19 02:31:07;;;;;;;46.28;8.57;;;;;;;;;;5022900;28;20029;-80
2021/12/19 02:33:38;;;;;;;40.53;6.55;;;;;;;;;;5026554;28;20036;-80
2021/12/19 02:36:21;;;;;;;42.85;8.05;;;;;;;;;;5020186;28;20026;-79
2021/12/19 02:49:46;;;;;;;32.13;7.03;;;;;;;;;;5020964;28;20040;-79
2021/12/19 02:52:16;;;;;;;43.08;8.60;;;;;;;;;;5002930;28;20038;-78
2021/12/19 02:54:42;;;;;;;37.25;8.38;;;;;;;;;;5020564;28;20030;-80
2021/12/19 02:57:08;;;;;;;38.42;8.73;;;;;;;;;;5019800;28;20028;-79
2021/12/19 02:59:34;;;;;;;47.30;8.77;;;;;;;;;;5034830;28;20021;-79
2021/12/19 03:02:00;;;;;;;39.53;8.60;;;;;;;;;;5036852;28;20018;-78
2021/12/19 03:04:26;;;;;;;35.80;8.20;;;;;;;;;;5036386;28;20026;-79
2021/12/19 03:06:52;;;;;;;38.35;8.40;;;;;;;;;;5017225;28;20026;-79
2021/12/19 03:09:48;;;;;;;33.25;7.70;;;;;;;;;;5032473;28;20026;-79
2021/12/19 03:12:13;;;;;;;35.30;7.60;;;;;;;;;;5019048;28;20111;-79
2021/12/19 03:20:10;;;;;;;32.75;6.85;;;;;;;;;;5024300;28;20028;-79
2021/12/19 03:22:36;;;;;;;26.67;6.45;;;;;;;;;;5023424;28;20434;-80
2021/12/19 03:25:02;;;;;;;26.48;5.95;;;;;;;;;;5020172;28;20034;-78
2021/12/19 03:27:28;;;;;;;27.75;6.38;;;;;;;;;;5020656;28;20033;-80
2021/12/19 03:29:54;;;;;;;22.75;5.05;;;;;;;;;;5019757;28;20503;-80
2021/12/19 03:32:20;;;;;;;16.75;4.50;;;;;;;;;;5019908;28;20048;-80
2021/12/19 03:34:46;;;;;;;20.20;4.50;;;;;;;;;;5003751;28;20053;-80
2021/12/19 03:37:12;;;;;;;19.95;4.68;;;;;;;;;;5024232;28;20026;-77
2021/12/19 03:39:55;;;;;;;16.85;4.10;;;;;;;;;;5018601;28;20025;-79
2021/12/19 03:42:22;;;;;;;22.52;3.33;;;;;;;;;;5036420;28;20030;-79
2021/12/19 03:44:48;;;;;;;12.45;2.78;;;;;;;;;;5035244;28;20022;-79
2021/12/19 03:47:14;;;;;;;8.32;2.40;;;;;;;;;;5034527;28;20387;-78
2021/12/19 03:49:40;;;;;;;12.98;2.40;;;;;;;;;;5032720;28;20033;-79
2021/12/19 03:52:06;;;;;;;9.18;1.92;;;;;;;;;;5033753;28;20030;-79
2021/12/19 03:54:32;;;;;;;7.82;1.80;;;;;;;;;;5035156;28;20092;-79
2021/12/19 03:56:58;;;;;;;7.85;1.80;;;;;;;;;;5019960;28;20033;-77
2021/12/19 03:59:26;;;;;;;10.73;1.90;;;;;;;;;;5036516;28;20033;-79
2021/12/19 04:01:53;;;;;;;12.75;1.90;;;;;;;;;;5018461;28;20017;-79
2021/12/19 04:04:19;;;;;;;11.15;1.80;;;;;;;;;;5035985;28;20081;-79
2021/12/19 04:06:45;;;;;;;10.18;2.03;;;;;;;;;;5036057;28;20049;-78
2021/12/19 04:09:11;;;;;;;9.23;2.20;;;;;;;;;;5036617;28;20093;-79
2021/12/19 04:11:38;;;;;;;15.75;2.60;;;;;;;;;;5019608;28;20045;-78
2021/12/19 04:14:04;;;;;;;13.93;2.70;;;;;;;;;;5032124;28;20041;-78
2021/12/19 04:16:30;;;;;;;14.07;2.90;;;;;;;;;;5024952;28;20037;-79
2021/12/19 04:18:56;;;;;;;16.35;2.75;;;;;;;;;;5000406;28;20022;-78
2021/12/19 04:21:23;;;;;;;15.43;3.25;;;;;;;;;;5020357;28;20513;-79
2021/12/19 04:23:49;;;;;;;20.90;3.17;;;;;;;;;;5026836;28;20026;-79
2021/12/19 04:26:15;;;;;;;11.75;3.17;;;;;;;;;;5023324;28;20030;-79
2021/12/19 04:28:41;;;;;;;11.93;2.40;;;;;;;;;;5017144;28;20080;-79
2021/12/19 04:31:07;;;;;;;7.72;2.03;;;;;;;;;;5017993;28;20022;-80
2021/12/19 04:33:36;;;;;;;7.68;1.80;;;;;;;;;;4998651;28;20030;-78
2021/12/19 04:36:02;;;;;;;9.00;1.70;;;;;;;;;;5019721;28;20472;-80
2021/12/19 04:39:03;;;;;;;11.48;1.77;;;;;;;;;;5023407;28;20086;-80
2021/12/19 04:44:36;;;;;;;12.15;2.67;;;;;;;;;;5036607;28;20069;-78
2021/12/19 05:00:09;;;;;;;12.05;3.40;;;;;;;;;;5034664;28;20034;-80
2021/12/19 05:16:04;;;;;;;15.00;3.40;;;;;;;;;;5022980;28;20060;-81
2021/12/19 05:18:34;;;;;;;27.25;4.63;;;;;;;;;;5020878;28;20423;-79
2021/12/19 05:21:26;;;;;;;18.10;3.83;;;;;;;;;;5021378;28;20427;-79
2021/12/19 05:26:14;;;;;;;17.00;3.25;;;;;;;;;;5023976;28;20042;-80
2021/12/19 05:28:40;;;;;;;19.90;3.22;;;;;;;;;;5028642;28;20064;-78
2021/12/19 05:31:06;;;;;;;19.08;3.28;;;;;;;;;;5036552;28;20049;-79
2021/12/19 05:33:32;;;;;;;26.63;3.38;;;;;;;;;;5030627;28;20395;-79
2021/12/19 05:46:39;;;;;;;23.40;3.67;;;;;;;;;;5033855;28;20040;-78
2021/12/19 05:49:06;;;;;;;22.52;3.83;;;;;;;;;;5018965;28;20341;-78
2021/12/19 05:51:33;;;;;;;28.88;3.72;;;;;;;;;;5015626;28;20030;-78
2021/12/19 05:53:58;;;;;;;33.88;4.15;;;;;;;;;;4998158;28;20372;-77
2021/12/19 05:56:24;;;;;;;26.90;4.22;;;;;;;;;;5015812;28;20085;-78
2021/12/19 05:58:50;;;;;;;18.95;3.53;;;;;;;;;;4999958;28;20030;-77
2021/12/19 06:01:17;;;;;;;25.67;4.25;;;;;;;;;;5019574;28;20030;-78
2021/12/19 06:03:43;;;;;;;34.95;4.85;;;;;;;;;;5018230;28;20141;-77
2021/12/19 06:06:09;;;;;;;29.80;4.63;;;;;;;;;;5017941;28;20040;-79
2021/12/19 06:08:35;;;;;;;25.75;3.10;;;;;;;;;;5037746;28;20082;-79
2021/12/19 06:11:01;;;;;;;23.00;3.83;;;;;;;;;;5020131;28;20092;-79
2021/12/19 06:13:27;;;;;;;29.83;4.30;;;;;;;;;;5019410;28;20038;-78
2021/12/19 06:15:55;;;;;;;28.25;4.07;;;;;;;;;;5018368;28;20022;-78
2021/12/19 06:18:21;;;;;;;27.45;3.70;;;;;;;;;;5014261;28;20589;-78
2021/12/19 06:20:47;;;;;;;19.13;3.45;;;;;;;;;;5016231;28;20061;-78
2021/12/19 06:23:13;;;;;;;31.33;4.43;;;;;;;;;;5014344;28;20029;-79
2021/12/19 06:25:45;;;;;;;28.13;3.65;;;;;;;;;;5015200;28;20022;-78
2021/12/19 06:28:14;;;;;;;28.13;5.07;;;;;;;;;;5015234;28;20033;-77
2021/12/19 06:30:40;;;;;;;36.67;5.00;;;;;;;;;;5021876;28;20041;-78
2021/12/19 06:33:06;;;;;;;23.13;4.05;;;;;;;;;;5018322;28;20499;-79
2021/12/19 06:35:33;;;;;;;26.90;4.30;;;;;;;;;;5016102;28;20030;-79
2021/12/19 06:37:59;;;;;;;29.75;3.38;;;;;;;;;;4997424;28;20041;-80
2021/12/19 06:40:25;;;;;;;26.10;4.07;;;;;;;;;;4999912;28;20149;-81
2021/12/19 06:42:51;;;;;;;27.52;4.03;;;;;;;;;;5016053;28;20034;-80
2021/12/19 06:45:18;;;;;;;28.02;4.05;;;;;;;;;;5014036;28;20032;-80
2021/12/19 06:47:44;;;;;;;28.90;3.95;;;;;;;;;;5017179;28;20095;-78
2021/12/19 06:50:12;;;;;;;31.60;3.97;;;;;;;;;;5001245;28;20025;-78
2021/12/19 06:52:38;;;;;;;28.92;4.22;;;;;;;;;;5018282;28;20060;-78
2021/12/19 06:55:04;;;;;;;30.42;3.85;;;;;;;;;;4997644;28;20033;-78
2021/12/19 06:57:30;;;;;;;35.15;4.75;;;;;;;;;;5014079;28;20022;-79
2021/12/19 06:59:56;;;;;;;34.38;3.65;;;;;;;;;;5014468;28;20082;-78
2021/12/19 07:02:22;;;;;;;18.67;3.95;;;;;;;;;;5018920;28;20025;-78
2021/12/19 07:04:48;;;;;;;21.80;3.63;;;;;;;;;;5002594;28;20049;-78
2021/12/19 07:07:14;;;;;;;43.05;4.18;;;;;;;;;;5020088;28;20049;-78
2021/12/19 07:09:41;;;;;;;26.95;4.10;;;;;;;;;;5018729;28;20434;-78
2021/12/19 07:12:07;;;;;;;28.00;3.47;;;;;;;;;;4999834;28;20403;-78
2021/12/19 07:14:33;;;;;;;22.65;3.53;;;;;;;;;;5021194;28;20029;-78
2021/12/19 07:16:59;;;;;;;25.30;3.05;;;;;;;;;;5021669;28;20033;-78
2021/12/19 07:19:25;;;;;;;21.23;3.22;;;;;;;;;;5007715;28;20017;-78
2021/12/19 07:21:51;;;;;;;19.02;3.30;;;;;;;;;;5009104;28;20040;-79
2021/12/19 07:24:17;;;;;;;32.67;3.92;;;;;;;;;;5025655;28;20104;-78
2021/12/19 07:26:44;;;;;;;25.35;4.28;;;;;;;;;;5022648;28;20529;-81
2021/12/19 07:29:10;;;;;;;24.38;3.35;;;;;;;;;;5004472;28;20025;-79
2021/12/19 07:31:37;;;;;;;27.13;4.30;;;;;;;;;;5020382;28;20046;-79
2021/12/19 07:34:03;;;;;;;21.70;3.47;;;;;;;;;;5019615;28;20053;-80
2021/12/19 07:36:36;;;;;;;31.77;3.90;;;;;;;;;;5020691;28;20045;-79
2021/12/19 07:39:08;;;;;;;21.90;3.30;;;;;;;;;;5021576;28;20018;-81
2021/12/19 07:41:34;;;;;;;27.10;3.58;;;;;;;;;;5022437;28;20368;-78
2021/12/19 07:44:00;;;;;;;24.25;3.92;;;;;;;;;;5022052;28;20022;-81
2021/12/19 07:46:26;;;;;;;21.02;3.17;;;;;;;;;;5022043;28;20104;-78
2021/12/19 07:48:52;;;;;;;27.08;3.47;;;;;;;;;;5006226;28;20061;-79
2021/12/19 07:51:18;;;;;;;29.08;3.30;;;;;;;;;;5028769;28;20026;-78
2021/12/19 07:53:44;;;;;;;32.97;4.93;;;;;;;;;;5029999;28;20471;-77
2021/12/19 07:56:10;;;;;;;36.42;4.50;;;;;;;;;;5010409;28;20029;-78
2021/12/19 07:58:36;;;;;;;24.65;3.55;;;;;;;;;;5024032;28;20040;-79
2021/12/19 08:01:02;;;;;;;24.05;3.40;;;;;;;;;;5024476;28;20030;-79
2021/12/19 08:03:28;;;;;;;25.38;3.92;;;;;;;;;;5027430;28;20032;-78
2021/12/19 08:05:55;;;;;;;31.17;3.42;;;;;;;;;;5032875;28;20042;-76
2021/12/19 08:08:26;;;;;;;27.02;3.47;;;;;;;;;;5037435;28;20029;-76
2021/12/19 08:13:37;;;;;;;;;;;;;;;;;;5041586;28;20049;-76
2021/12/19 08:16:03;;;;;;;26.83;3.85;;;;;;;;;;5041153;28;19898;-75
2021/12/19 08:18:29;;;;;;;31.15;4.10;;;;;;;;;;5024208;28;20057;-76
2021/12/19 08:20:55;;;;;;;23.20;3.95;;;;;;;;;;5041179;28;20026;-79
2021/12/19 08:23:21;;;;;;;40.83;5.00;;;;;;;;;;5039630;28;20018;-77
2021/12/19 08:25:47;;;;;;;21.10;3.22;;;;;;;;;;5040848;28;20018;-77
2021/12/19 08:28:13;;;;;;;31.00;4.38;;;;;;;;;;5040862;28;20056;-76
2021/12/19 08:30:39;;;;;;;33.30;4.85;;;;;;;;;;5038080;28;20526;-79
2021/12/19 08:33:05;;;;;;;28.00;3.25;;;;;;;;;;5024809;28;20068;-79
2021/12/19 08:35:31;;;;;;;27.65;3.00;;;;;;;;;;5007783;28;20483;-79
2021/12/19 08:37:57;;;;;;;28.35;3.67;;;;;;;;;;5027747;28;20022;-79
2021/12/19 08:40:24;;;;;;;21.02;3.67;;;;;;;;;;5007278;28;20085;-79
2021/12/19 08:42:50;;;;;;;21.88;2.97;;;;;;;;;;5027508;28;20054;-78
2021/12/19 08:45:16;;;;;;;21.73;3.30;;;;;;;;;;5026753;28;20026;-78
2021/12/19 08:47:43;;;;;;;26.20;3.03;;;;;;;;;;5027009;28;20037;-78
2021/12/19 08:50:09;;;;;;;25.42;3.58;;;;;;;;;;5029163;28;20036;-81
2021/12/19 08:52:35;;;;;;;22.20;3.65;;;;;;;;;;5029082;28;20029;-77
2021/12/19 08:55:01;;;;;;;28.05;3.78;;;;;;;;;;5022764;28;20064;-78
2021/12/19 08:57:27;;;;;;;22.85;3.60;;;;;;;;;;5019589;28;20026;-77
2021/12/19 08:59:53;;;;;;;25.70;3.47;;;;;;;;;;5004728;28;20120;-78
2021/12/19 09:02:19;;;;;;;30.73;4.55;;;;;;;;;;5021553;28;20026;-77
2021/12/19 09:04:45;;;;;;;31.63;3.85;;;;;;;;;;5008213;28;20383;-78
2021/12/19 09:07:13;;;;;;;38.63;4.47;;;;;;;;;;5029614;28;20059;-80
2021/12/19 09:09:39;;;;;;;30.95;3.72;;;;;;;;;;5037274;28;20022;-79
2021/12/19 09:12:05;;;;;;;31.27;4.35;;;;;;;;;;5022842;28;20515;-78
2021/12/19 09:14:31;;;;;;;29.02;4.05;;;;;;;;;;5007939;28;20032;-77
2021/12/19 09:16:57;;;;;;;35.38;4.38;;;;;;;;;;5023800;28;20077;-78
2021/12/19 09:19:25;;;;;;;24.83;3.92;;;;;;;;;;5006787;28;20048;-79
2021/12/19 09:21:51;;;;;;;24.52;3.47;;;;;;;;;;5022257;28;20386;-78
2021/12/19 09:24:17;;;;;;;29.15;3.42;;;;;;;;;;5021484;28;20109;-79
2021/12/19 09:26:44;;;;;;;24.23;4.03;;;;;;;;;;5006079;28;20399;-78
2021/12/19 09:29:10;;;;;;;30.48;4.50;;;;;;;;;;5021593;28;20032;-78
2021/12/19 09:31:36;;;;;;;29.75;4.15;;;;;;;;;;5018133;28;20034;-79
2021/12/19 09:34:03;;;;;;;30.13;3.72;;;;;;;;;;5005746;28;20034;-78
2021/12/19 09:36:29;;;;;;;26.95;3.67;;;;;;;;;;5029512;28;20042;-77
2021/12/19 09:38:55;;;;;;;30.05;3.80;;;;;;;;;;5028926;28;20030;-78
2021/12/19 09:41:28;;;;;;;23.52;4.00;;;;;;;;;;5033709;28;20034;-78
2021/12/19 09:43:56;;;;;;;29.40;3.67;;;;;;;;;;5033391;28;20020;-79
2021/12/19 09:46:25;;;;;;;31.88;3.65;;;;;;;;;;5024803;28;20076;-79
2021/12/19 09:48:53;;;;;;;33.15;4.03;;;;;;;;;;5025179;28;20029;-79
2021/12/19 09:51:19;;;;;;;34.17;4.43;;;;;;;;;;5015659;28;20081;-78
2021/12/19 09:53:45;;;;;;;29.95;3.70;;;;;;;;;;5032838;28;20036;-78
2021/12/19 09:56:12;;;;;;;34.50;3.83;;;;;;;;;;5030595;28;20030;-80
2021/12/19 09:58:39;;;;;;;35.33;4.38;;;;;;;;;;5021445;28;20021;-79
2021/12/19 10:01:06;;;;;;;31.92;4.20;;;;;;;;;;5021683;28;20025;-81
2021/12/19 10:03:33;;;;;;;29.77;4.15;;;;;;;;;;5020992;28;20033;-80
2021/12/19 10:06:31;;;;;;;27.27;4.35;;;;;;;;;;5015401;28;20029;-79
2021/12/19 10:09:18;;;;;;;38.08;4.45;;;;;;;;;;4979484;28;20088;-80
2021/12/19 10:12:12;;;;;;;23.92;3.50;;;;;;;;;;5025530;28;20029;-80
2021/12/19 10:14:38;;;;;;;39.22;5.22;;;;;;;;;;5017975;28;20359;-81
2021/12/19 10:17:06;;;;;;;30.08;4.07;;;;;;;;;;5018605;28;20032;-79
2021/12/19 10:19:41;;;;;;;32.92;4.40;;;;;;;;;;5019660;28;20025;-80
2021/12/19 10:22:07;;;;;;;25.95;3.70;;;;;;;;;;5003221;28;20028;-79
2021/12/19 10:24:35;;;;;;;23.52;3.95;;;;;;;;;;5017621;28;20033;-78
2021/12/19 10:27:02;;;;;;;28.58;4.15;;;;;;;;;;5019921;28;20037;-80
2021/12/19 10:29:45;;;;;;;31.13;4.03;;;;;;;;;;5023307;28;20491;-79
2021/12/19 10:32:11;;;;;;;29.80;4.63;;;;;;;;;;5020810;28;20026;-79
2021/12/19 10:34:37;;;;;;;32.80;4.90;;;;;;;;;;5017270;28;20045;-80
2021/12/19 10:37:05;;;;;;;25.17;3.80;;;;;;;;;;5021522;28;20030;-80
2021/12/19 10:39:38;;;;;;;40.58;5.22;;;;;;;;;;5025536;28;20049;-80
2021/12/19 10:42:04;;;;;;;30.17;4.57;;;;;;;;;;5021943;28;20080;-79
2021/12/19 10:47:15;;;;;;;;;;;;;;;;;;5022656;28;20092;-78
2021/12/19 10:49:41;;;;;;;29.85;4.00;;;;;;;;;;5010457;28;19913;-78
2021/12/19 10:52:07;;;;;;;33.35;4.00;;;;;;;;;;5030787;28;20025;-79
2021/12/19 10:54:35;;;;;;;36.50;4.75;;;;;;;;;;5016452;28;20045;-78
2021/12/19 10:57:08;;;;;;;39.08;4.82;;;;;;;;;;5013237;28;20053;-81
2021/12/19 10:59:35;;;;;;;35.15;4.72;;;;;;;;;;5005781;28;20021;-80
2021/12/19 11:02:01;;;;;;;32.47;4.72;;;;;;;;;;5022797;28;20041;-81
2021/12/19 11:04:27;;;;;;;30.33;4.00;;;;;;;;;;5032983;28;20040;-79
2021/12/19 11:06:58;;;;;;;41.92;4.90;;;;;;;;;;5017127;28;20021;-80
2021/12/19 11:09:28;;;;;;;34.97;4.57;;;;;;;;;;5038111;28;20081;-79
2021/12/19 11:11:56;;;;;;;24.75;4.20;;;;;;;;;;5038273;28;20032;-80
2021/12/19 11:14:27;;;;;;;32.85;4.50;;;;;;;;;;5021484;28;20021;-81
2021/12/19 11:16:57;;;;;;;30.85;4.18;;;;;;;;;;5021030;28;20025;-81
2021/12/19 11:19:24;;;;;;;31.95;4.40;;;;;;;;;;5018506;28;20029;-78
2021/12/19 11:21:50;;;;;;;28.73;4.68;;;;;;;;;;5036739;28;20024;-76
2021/12/19 11:24:18;;;;;;;24.45;3.55;;;;;;;;;;5036526;28;20022;-74
2021/12/19 11:26:45;;;;;;;34.42;5.05;;;;;;;;;;5037031;28;20022;-77
2021/12/19 11:29:12;;;;;;;33.17;4.20;;;;;;;;;;5036978;28;20114;-75
2021/12/19 11:31:39;;;;;;;30.83;4.57;;;;;;;;;;5036883;28;20104;-77
2021/12/19 11:34:12;;;;;;;32.88;4.15;;;;;;;;;;5028434;28;20037;-80
2021/12/19 11:36:41;;;;;;;27.52;4.43;;;;;;;;;;5009478;28;20471;-79
2021/12/19 11:39:07;;;;;;;26.48;3.53;;;;;;;;;;5026972;28;20029;-80
2021/12/19 11:41:34;;;;;;;19.50;3.85;;;;;;;;;;5007631;28;20037;-80
2021/12/19 11:44:04;;;;;;;34.97;5.00;;;;;;;;;;5031943;28;20010;-78
2021/12/19 11:46:42;;;;;;;37.85;4.68;;;;;;;;;;5024855;28;20018;-78
2021/12/19 11:49:15;;;;;;;26.05;3.20;;;;;;;;;;5006126;28;20018;-77
2021/12/19 11:51:43;;;;;;;23.73;4.57;;;;;;;;;;5008412;28;20022;-79
2021/12/19 11:54:14;;;;;;;31.80;4.30;;;;;;;;;;5025256;28;20018;-78
2021/12/19 11:56:40;;;;;;;27.75;4.20;;;;;;;;;;5024681;28;20026;-77
2021/12/19 11:59:18;;;;;;;30.83;3.80;;;;;;;;;;5021527;28;20025;-77
2021/12/19 12:01:45;;;;;;;28.02;3.80;;;;;;;;;;5026741;28;20041;-80
2021/12/19 12:04:12;;;;;;;24.30;4.38;;;;;;;;;;5031621;28;20109;-78
2021/12/19 12:06:39;;;;;;;29.70;4.72;;;;;;;;;;5031922;28;20344;-75
2021/12/19 12:09:19;;;;;;;27.73;4.53;;;;;;;;;;5030417;28;20030;-76
2021/12/19 12:12:05;;;;;;;32.35;4.05;;;;;;;;;;5015002;28;20026;-76
2021/12/19 12:14:55;;;;;;;26.25;4.57;;;;;;;;;;5009052;28;20454;-78
2021/12/19 12:17:28;;;;;;;34.72;4.43;;;;;;;;;;5008808;28;20037;-78
2021/12/19 12:19:57;;;;;;;23.90;3.78;;;;;;;;;;5001353;28;20093;-80
2021/12/19 12:25:08;;;;;;;24.20;3.90;;;;;;;;;;5021255;28;20030;-77
2021/12/19 12:27:38;;;;;;;32.58;4.03;;;;;;;;;;5024139;28;20262;-78
2021/12/19 12:30:06;;;;;;;29.40;4.95;;;;;;;;;;5026113;28;20033;-74
2021/12/19 12:32:32;;;;;;;25.83;4.28;;;;;;;;;;5006521;28;20026;-80
2021/12/19 12:34:58;;;;;;;27.35;3.55;;;;;;;;;;5020474;28;20014;-80
2021/12/19 12:37:24;;;;;;;25.15;4.22;;;;;;;;;;5020627;28;20085;-77
2021/12/19 12:40:15;;;;;;;25.35;3.97;;;;;;;;;;5023012;28;20022;-77
2021/12/19 12:42:54;;;;;;;37.95;4.70;;;;;;;;;;5026379;28;20086;-82
2021/12/19 12:45:20;;;;;;;28.67;4.70;;;;;;;;;;5001440;28;20030;-80
2021/12/19 12:47:49;;;;;;;31.13;4.53;;;;;;;;;;5018244;28;20488;-78
2021/12/19 12:50:14;;;;;;;28.73;4.13;;;;;;;;;;5018635;28;20629;-79
2021/12/19 12:52:40;;;;;;;30.30;4.43;;;;;;;;;;5019758;28;20021;-80
2021/12/19 12:55:07;;;;;;;28.02;4.13;;;;;;;;;;5020062;28;20030;-77
2021/12/19 12:57:35;;;;;;;24.23;3.35;;;;;;;;;;5021119;28;20032;-82
2021/12/19 13:00:01;;;;;;;36.35;3.67;;;;;;;;;;5022240;28;20025;-80
2021/12/19 13:02:41;;;;;;;26.75;3.85;;;;;;;;;;5022183;28;20105;-79
2021/12/19 13:05:11;;;;;;;34.00;5.00;;;;;;;;;;5004160;28;20697;-79
2021/12/19 13:07:37;;;;;;;25.35;3.63;;;;;;;;;;5002321;28;20089;-79
2021/12/19 13:10:03;;;;;;;23.75;4.40;;;;;;;;;;5021804;28;20061;-79
2021/12/19 13:12:31;;;;;;;32.80;4.13;;;;;;;;;;5023322;28;20049;-80
2021/12/19 13:14:58;;;;;;;36.00;4.53;;;;;;;;;;5020203;28;20468;-77
2021/12/19 13:17:24;;;;;;;28.83;3.75;;;;;;;;;;5018410;28;20029;-79
2021/12/19 13:19:52;;;;;;;30.83;3.90;;;;;;;;;;5017586;28;20156;-76
2021/12/19 13:22:19;;;;;;;22.67;3.47;;;;;;;;;;5016554;28;20395;-80
2021/12/19 13:24:46;;;;;;;30.40;3.83;;;;;;;;;;5020839;28;20026;-78
2021/12/19 13:27:22;;;;;;;30.67;4.13;;;;;;;;;;5022663;28;20061;-80
2021/12/19 13:29:59;;;;;;;28.05;4.53;;;;;;;;;;5020626;28;20133;-77
2021/12/19 13:32:52;;;;;;;21.83;3.47;;;;;;;;;;5017809;28;20649;-76
2021/12/19 13:35:24;;;;;;;26.20;4.60;;;;;;;;;;5014941;28;20096;-78
2021/12/19 13:37:54;;;;;;;30.63;4.57;;;;;;;;;;5018230;28;20178;-78
2021/12/19 13:40:21;;;;;;;34.08;4.45;;;;;;;;;;5023147;28;20022;-76
2021/12/19 13:43:11;;;;;;;35.33;5.10;;;;;;;;;;5022125;28;20026;-76
2021/12/19 13:45:49;;;;;;;27.55;3.80;;;;;;;;;;4995085;28;20063;-79
2021/12/19 13:48:38;;;;;;;26.33;3.95;;;;;;;;;;5000677;28;20109;-78
2021/12/19 13:51:12;;;;;;;33.13;4.60;;;;;;;;;;5021548;28;20065;-77
2021/12/19 13:53:39;;;;;;;;;;;;;;;;;;5014876;28;20021;-79
2021/12/19 13:56:07;;;;;;;30.45;4.05;;;;;;;;;;5027183;28;19905;-80
2021/12/19 13:58:37;;;;;;;35.65;4.47;;;;;;;;;;5005247;28;20421;-79
2021/12/19 14:01:15;;;;;;;36.25;4.80;;;;;;;;;;5025504;28;20479;-78
2021/12/19 14:03:42;;;;;;;33.30;4.65;;;;;;;;;;4999182;28;20480;-77
2021/12/19 14:06:10;;;;;;;32.65;4.45;;;;;;;;;;4997792;28;20277;-78
2021/12/19 14:08:36;;;;;;;31.92;4.43;;;;;;;;;;4981002;28;20031;-79
2021/12/19 14:11:15;;;;;;;36.85;5.18;;;;;;;;;;5002382;28;20141;-76
2021/12/19 14:13:43;;;;;;;38.35;4.72;;;;;;;;;;5003828;28;20033;-76
2021/12/19 14:16:16;;;;;;;33.92;4.28;;;;;;;;;;5017191;28;20029;-77
2021/12/19 14:18:46;;;;;;;39.60;5.55;;;;;;;;;;5020213;28;20466;-76
2021/12/19 14:21:30;;;;;;;33.83;5.03;;;;;;;;;;5025011;28;20045;-77
2021/12/19 14:24:11;;;;;;;44.00;5.88;;;;;;;;;;5021517;28;20376;-76
2021/12/19 14:26:38;;;;;;;35.95;5.40;;;;;;;;;;5023885;28;20026;-77
2021/12/19 14:29:04;;;;;;;34.70;4.63;;;;;;;;;;5019498;28;20033;-76
2021/12/19 14:31:47;;;;;;;36.03;5.60;;;;;;;;;;5021182;28;20384;-77
2021/12/19 14:34:16;;;;;;;41.40;6.57;;;;;;;;;;5003059;28;20022;-77
2021/12/19 14:36:42;;;;;;;48.38;6.40;;;;;;;;;;5019409;28;20030;-76
2021/12/19 14:39:08;;;;;;;43.88;5.40;;;;;;;;;;5020515;28;20113;-76
2021/12/19 14:41:34;;;;;;;48.00;6.80;;;;;;;;;;5024530;28;20081;-76
2021/12/19 14:44:01;;;;;;;47.95;6.30;;;;;;;;;;5021376;28;20050;-76
2021/12/19 14:46:28;;;;;;;55.40;7.47;;;;;;;;;;5017138;28;20372;-78
2021/12/19 14:48:54;;;;;;;44.55;6.10;;;;;;;;;;5027360;28;20081;-76
2021/12/19 14:51:24;;;;;;;53.40;6.40;;;;;;;;;;5015207;28;20010;-78
2021/12/19 14:53:58;;;;;;;53.45;7.10;;;;;;;;;;5037434;28;20029;-77
2021/12/19 14:56:26;;;;;;;48.73;5.73;;;;;;;;;;5019912;28;20097;-77
2021/12/19 14:59:03;;;;;;;51.17;7.32;;;;;;;;;;5019564;28;20030;-78
2021/12/19 15:01:33;;;;;;;59.03;7.28;;;;;;;;;;5020795;28;20034;-78
2021/12/19 15:04:09;;;;;;;70.53;7.30;;;;;;;;;;5021053;28;20018;-76
2021/12/19 15:06:47;;;;;;;59.72;7.82;;;;;;;;;;5033525;28;20059;-78
2021/12/19 15:11:54;;;;;;;49.00;7.65;;;;;;;;;;5112298;28;20381;-77
2021/12/19 15:14:20;;;;;;;62.95;7.70;;;;;;;;;;5089934;28;20107;-76
2021/12/19 15:16:46;;;;;;;57.42;7.15;;;;;;;;;;5086230;28;20032;-76
2021/12/19 15:19:12;;;;;;;51.88;7.53;;;;;;;;;;5072139;28;20385;-76
2021/12/19 15:21:39;;;;;;;62.13;7.63;;;;;;;;;;5077828;28;20031;-77
2021/12/19 15:24:05;;;;;;;62.95;7.90;;;;;;;;;;5083721;28;20052;-76
2021/12/19 15:26:32;;;;;;;78.57;9.35;;;;;;;;;;5071886;28;20583;-76
2021/12/19 15:28:58;;;;;;;64.57;7.45;;;;;;;;;;5070391;28;20096;-78
2021/12/19 15:31:25;;;;;;;63.00;8.70;;;;;;;;;;5069202;28;20029;-78
2021/12/19 15:33:52;;;;;;;62.47;8.23;;;;;;;;;;5070861;28;20070;-77
2021/12/19 15:36:19;;;;;;;65.95;8.38;;;;;;;;;;5070639;28;20427;-79
2021/12/19 15:38:45;;;;;;;62.38;8.38;;;;;;;;;;5070919;28;20470;-77
2021/12/19 15:41:12;;;;;;;72.65;8.05;;;;;;;;;;5071846;28;20029;-78
2021/12/19 15:43:38;;;;;;;59.22;8.40;;;;;;;;;;5070648;28;20349;-78
2021/12/19 15:46:04;;;;;;;67.13;8.85;;;;;;;;;;5068937;28;20070;-77
2021/12/19 15:48:30;;;;;;;62.38;8.32;;;;;;;;;;5071180;28;20025;-77
2021/12/19 15:50:56;;;;;;;56.65;7.75;;;;;;;;;;5070557;28;20021;-77
2021/12/19 15:53:22;;;;;;;78.53;9.55;;;;;;;;;;5073373;28;20416;-79